Terminal Aerodrome Forecast
Issued by NWS Paducah, KY

Home | Current Version | Previous Version | Text Only | Print | Product List | Glossary Off
Versions: 1 2 3 4 5 6 7 8 9 10 11 12 13 14

000
FTUS43 KPAH 040520
TAFEVV
TAF
KEVV 040520Z 0406/0506 27003KT P6SM SCT100
     FM041200 23010KT 6SM -SHRA BKN035
     FM041700 32014G24KT P6SM BKN035
     FM050100 34006KT P6SM SCT050=

USA.gov is the U.S. government's official web portal to all federal, state and local government web resources and services.